sensor_id;sensor_type;location;lat;lon;timestamp;pressure;altitude;pressure_sealevel;temperature;humidity
45939;BME280;31650;48.818;9.116;2023-02-23T00:08:14;97630.91;;;7.13;100.00
45939;BME280;31650;48.818;9.116;2023-02-23T00:23:14;97622.16;;;7.04;100.00
45939;BME280;31650;48.818;9.116;2023-02-23T00:38:14;97629.22;;;6.86;100.00
45939;BME280;31650;48.818;9.116;2023-02-23T00:53:14;97618.41;;;6.79;100.00
45939;BME280;31650;48.818;9.116;2023-02-23T01:08:15;97613.84;;;6.79;100.00
45939;BME280;31650;48.818;9.116;2023-02-23T01:23:15;97622.13;;;6.78;100.00
45939;BME280;31650;48.818;9.116;2023-02-23T01:38:15;97623.38;;;6.75;100.00
45939;BME280;31650;48.818;9.116;2023-02-23T01:53:16;97606.53;;;6.73;100.00
45939;BME280;31650;48.818;9.116;2023-02-23T02:08:16;97598.66;;;6.72;100.00
45939;BME280;31650;48.818;9.116;2023-02-23T02:23:27;97598.84;;;6.70;100.00
45939;BME280;31650;48.818;9.116;2023-02-23T03:24:31;97571.66;;;6.92;100.00
45939;BME280;31650;48.818;9.116;2023-02-23T03:40:05;97586.59;;;6.88;100.00
45939;BME280;31650;48.818;9.116;2023-02-23T03:55:29;97584.94;;;6.80;100.00
45939;BME280;31650;48.818;9.116;2023-02-23T04:10:53;97586.38;;;6.69;100.00
45939;BME280;31650;48.818;9.116;2023-02-23T04:26:15;97582.44;;;6.65;100.00
45939;BME280;31650;48.818;9.116;2023-02-23T04:41:16;97594.44;;;6.56;100.00
45939;BME280;31650;48.818;9.116;2023-02-23T04:56:16;97590.09;;;6.55;100.00
45939;BME280;31650;48.818;9.116;2023-02-23T05:11:17;97593.41;;;6.50;100.00
45939;BME280;31650;48.818;9.116;2023-02-23T05:26:17;97589.66;;;6.45;100.00
45939;BME280;31650;48.818;9.116;2023-02-23T05:41:18;97605.25;;;6.56;100.00
45939;BME280;31650;48.818;9.116;2023-02-23T05:56:19;97598.81;;;6.57;100.00
45939;BME280;31650;48.818;9.116;2023-02-23T06:11:20;97592.97;;;6.47;100.00
45939;BME280;31650;48.818;9.116;2023-02-23T06:26:20;97608.81;;;6.63;100.00
45939;BME280;31650;48.818;9.116;2023-02-23T06:41:20;97614.19;;;6.63;100.00
45939;BME280;31650;48.818;9.116;2023-02-23T06:56:20;97622.31;;;6.70;100.00
45939;BME280;31650;48.818;9.116;2023-02-23T07:11:21;97646.03;;;6.88;100.00
45939;BME280;31650;48.818;9.116;2023-02-23T07:26:21;97656.31;;;7.12;100.00
45939;BME280;31650;48.818;9.116;2023-02-23T07:41:21;97662.97;;;7.63;100.00
45939;BME280;31650;48.818;9.116;2023-02-23T07:56:23;97668.31;;;8.03;100.00
45939;BME280;31650;48.818;9.116;2023-02-23T08:11:23;97663.66;;;8.37;100.00
45939;BME280;31650;48.818;9.116;2023-02-23T08:26:23;97662.88;;;8.81;100.00
45939;BME280;31650;48.818;9.116;2023-02-23T08:41:24;97656.94;;;9.29;100.00
45939;BME280;31650;48.818;9.116;2023-02-23T08:56:25;97669.69;;;10.22;100.00
45939;BME280;31650;48.818;9.116;2023-02-23T09:11:25;97681.91;;;10.13;100.00
45939;BME280;31650;48.818;9.116;2023-02-23T09:26:26;97661.41;;;11.03;100.00
45939;BME280;31650;48.818;9.116;2023-02-23T09:56:35;97649.19;;;11.89;100.00
45939;BME280;31650;48.818;9.116;2023-02-23T10:11:44;97655.59;;;12.19;100.00
45939;BME280;31650;48.818;9.116;2023-02-23T10:26:53;97634.31;;;13.42;97.35
45939;BME280;31650;48.818;9.116;2023-02-23T10:41:53;97639.03;;;12.72;100.00
45939;BME280;31650;48.818;9.116;2023-02-23T10:56:56;97652.28;;;13.09;100.00
45939;BME280;31650;48.818;9.116;2023-02-23T11:11:57;97632.03;;;13.22;94.19
45939;BME280;31650;48.818;9.116;2023-02-23T11:26:59;97616.44;;;14.41;78.32
45939;BME280;31650;48.818;9.116;2023-02-23T11:42:11;97599.19;;;14.01;74.11
45939;BME280;31650;48.818;9.116;2023-02-23T11:57:20;97582.06;;;14.28;77.53
45939;BME280;31650;48.818;9.116;2023-02-23T12:12:21;97581.19;;;15.48;66.56
45939;BME280;31650;48.818;9.116;2023-02-23T12:27:45;97568.53;;;15.42;65.39
45939;BME280;31650;48.818;9.116;2023-02-23T12:57:54;97569.00;;;13.24;81.85
45939;BME280;31650;48.818;9.116;2023-02-23T13:28:00;97569.09;;;12.26;92.72
45939;BME280;31650;48.818;9.116;2023-02-23T13:58:25;97552.72;;;12.66;89.55
45939;BME280;31650;48.818;9.116;2023-02-23T14:13:28;97550.75;;;12.78;83.15
45939;BME280;31650;48.818;9.116;2023-02-23T14:58:42;97554.47;;;12.44;89.16
45939;BME280;31650;48.818;9.116;2023-02-23T15:13:48;97569.00;;;11.97;100.00
45939;BME280;31650;48.818;9.116;2023-02-23T15:28:50;97577.41;;;11.72;100.00
45939;BME280;31650;48.818;9.116;2023-02-23T15:43:50;97573.72;;;11.78;100.00
45939;BME280;31650;48.818;9.116;2023-02-23T15:58:51;97576.59;;;11.48;100.00
45939;BME280;31650;48.818;9.116;2023-02-23T16:13:54;97586.72;;;11.17;100.00
45939;BME280;31650;48.818;9.116;2023-02-23T16:28:55;97596.44;;;10.83;100.00
45939;BME280;31650;48.818;9.116;2023-02-23T16:43:57;97587.34;;;10.59;100.00
45939;BME280;31650;48.818;9.116;2023-02-23T16:58:59;97597.66;;;10.38;100.00
45939;BME280;31650;48.818;9.116;2023-02-23T17:14:00;97602.00;;;10.21;100.00
45939;BME280;31650;48.818;9.116;2023-02-23T17:29:00;97611.44;;;10.18;100.00
45939;BME280;31650;48.818;9.116;2023-02-23T17:44:01;97631.59;;;9.67;100.00
45939;BME280;31650;48.818;9.116;2023-02-23T17:59:04;97638.03;;;9.16;100.00
45939;BME280;31650;48.818;9.116;2023-02-23T18:14:04;97641.38;;;8.86;100.00
45939;BME280;31650;48.818;9.116;2023-02-23T18:29:05;97648.44;;;8.36;100.00
45939;BME280;31650;48.818;9.116;2023-02-23T18:44:06;97643.31;;;8.07;100.00
45939;BME280;31650;48.818;9.116;2023-02-23T18:59:07;97649.03;;;7.59;100.00
45939;BME280;31650;48.818;9.116;2023-02-23T19:14:11;97635.06;;;7.62;100.00
45939;BME280;31650;48.818;9.116;2023-02-23T19:29:12;97630.28;;;7.78;100.00
45939;BME280;31650;48.818;9.116;2023-02-23T19:44:12;97634.38;;;8.07;100.00
45939;BME280;31650;48.818;9.116;2023-02-23T19:59:12;97625.44;;;8.00;100.00
45939;BME280;31650;48.818;9.116;2023-02-23T20:14:12;97639.66;;;7.62;100.00
45939;BME280;31650;48.818;9.116;2023-02-23T20:29:14;97634.63;;;7.79;100.00
45939;BME280;31650;48.818;9.116;2023-02-23T20:44:15;97639.22;;;7.85;100.00
45939;BME280;31650;48.818;9.116;2023-02-23T20:59:15;97624.81;;;7.91;100.00
45939;BME280;31650;48.818;9.116;2023-02-23T21:14:15;97622.13;;;7.91;100.00
45939;BME280;31650;48.818;9.116;2023-02-23T21:29:16;97617.16;;;7.81;100.00
45939;BME280;31650;48.818;9.116;2023-02-23T21:44:17;97605.50;;;7.81;100.00
45939;BME280;31650;48.818;9.116;2023-02-23T21:59:17;97612.78;;;7.87;100.00
45939;BME280;31650;48.818;9.116;2023-02-23T22:14:18;97613.84;;;7.79;100.00
45939;BME280;31650;48.818;9.116;2023-02-23T22:29:19;97609.00;;;7.95;100.00
45939;BME280;31650;48.818;9.116;2023-02-23T22:44:19;97598.19;;;7.95;100.00
45939;BME280;31650;48.818;9.116;2023-02-23T22:59:20;97579.63;;;7.98;100.00
45939;BME280;31650;48.818;9.116;2023-02-23T23:14:20;97578.53;;;8.13;100.00
45939;BME280;31650;48.818;9.116;2023-02-23T23:29:22;97559.41;;;8.07;100.00
45939;BME280;31650;48.818;9.116;2023-02-23T23:44:24;97549.19;;;8.09;100.00
45939;BME280;31650;48.818;9.116;2023-02-23T23:59:28;97545.03;;;8.14;100.00
